Time;durP1;ratioP1;P1;durP2;ratioP2;P2;SDS_P1;SDS_P2;PMS_P1;PMS_P2;Temp;Humidity;BMP_temperature;BMP_pressure;BME280_temperature;BME280_humidity;BME280_pressure;Samples;Min_cycle;Max_cycle;Signal;HPM_P1;HPM_P2
2022/09/07 00:00:41;;;;;;;1999.90;999.90;;;18.40;99.90;;;;;;5073014;28;20233;-68
2022/09/07 00:03:09;;;;;;;1999.90;999.90;;;18.40;99.90;;;;;;5073185;28;20203;-67
2022/09/07 00:05:42;;;;;;;1999.90;999.90;;;18.00;99.90;;;;;;5073253;28;20206;-68
2022/09/07 00:08:09;;;;;;;1999.90;999.90;;;17.90;99.90;;;;;;5072946;28;20666;-68
2022/09/07 00:10:37;;;;;;;1999.90;999.90;;;18.00;99.90;;;;;;5073154;28;20209;-67
2022/09/07 00:13:05;;;;;;;1999.90;999.90;;;18.10;99.90;;;;;;5072798;28;20194;-68
2022/09/07 00:15:32;;;;;;;1999.90;999.90;;;18.60;99.90;;;;;;5072716;28;20225;-67
2022/09/07 00:18:00;;;;;;;1999.90;999.90;;;18.60;99.90;;;;;;5073079;28;20198;-67
2022/09/07 00:20:27;;;;;;;1999.90;999.90;;;18.40;99.90;;;;;;5072997;28;20206;-67
2022/09/07 00:22:54;;;;;;;1999.90;999.90;;;18.30;99.90;;;;;;5072939;28;20235;-67
2022/09/07 00:25:21;;;;;;;1999.90;999.90;;;18.70;99.90;;;;;;5072450;28;20644;-67
2022/09/07 00:27:48;;;;;;;1999.90;999.90;;;18.30;99.90;;;;;;5072893;28;20226;-67
2022/09/07 00:30:16;;;;;;;1999.90;999.90;;;18.50;99.90;;;;;;5072580;28;20204;-67
2022/09/07 00:32:43;;;;;;;1999.90;999.90;;;18.50;99.90;;;;;;5072654;28;20201;-67
2022/09/07 00:35:11;;;;;;;1999.90;999.90;;;18.00;99.90;;;;;;5071958;28;20215;-67
2022/09/07 00:37:38;;;;;;;1999.90;999.90;;;18.00;99.90;;;;;;5072684;28;20203;-67
2022/09/07 00:40:06;;;;;;;1999.90;999.90;;;18.00;99.90;;;;;;5072755;28;20255;-67
2022/09/07 00:42:33;;;;;;;1999.90;999.90;;;17.90;99.90;;;;;;5072390;28;20194;-67
2022/09/07 00:45:07;;;;;;;1999.90;999.90;;;18.40;99.90;;;;;;5072402;28;20194;-67
2022/09/07 00:47:40;;;;;;;1999.90;999.90;;;18.40;99.90;;;;;;5072330;28;20183;-67
2022/09/07 00:50:14;;;;;;;1999.90;999.90;;;18.20;99.90;;;;;;5072342;28;20199;-66
2022/09/07 00:52:44;;;;;;;1999.90;999.90;;;17.90;99.90;;;;;;5072280;28;20540;-67
2022/09/07 00:55:14;;;;;;;1999.90;999.90;;;17.90;99.90;;;;;;5072016;28;20210;-67
2022/09/07 00:57:44;;;;;;;1999.90;999.90;;;18.20;99.90;;;;;;5072503;28;20198;-66
2022/09/07 01:00:12;;;;;;;1999.90;999.90;;;18.00;99.90;;;;;;5071946;28;20659;-66
2022/09/07 01:02:40;;;;;;;1999.90;999.90;;;17.90;99.90;;;;;;5071977;28;20671;-66
2022/09/07 01:05:15;;;;;;;1999.90;999.90;;;17.70;99.90;;;;;;5072111;28;20203;-66
2022/09/07 01:07:43;;;;;;;1999.90;999.90;;;18.20;99.90;;;;;;5072479;28;20200;-66
2022/09/07 01:10:10;;;;;;;1999.90;999.90;;;18.20;99.90;;;;;;5072233;28;20250;-66
2022/09/07 01:12:37;;;;;;;1999.90;999.90;;;18.20;99.90;;;;;;5072371;28;20215;-66
2022/09/07 01:15:05;;;;;;;1999.90;999.90;;;18.10;99.90;;;;;;5072269;28;20267;-66
2022/09/07 01:17:45;;;;;;;1999.90;999.90;;;18.00;99.90;;;;;;5072312;28;20213;-66
2022/09/07 01:20:39;;;;;;;1999.90;999.90;;;17.80;99.90;;;;;;5072052;28;20185;-65
2022/09/07 01:23:33;;;;;;;1999.90;999.90;;;18.10;99.90;;;;;;5072330;28;20192;-65
2022/09/07 01:26:29;;;;;;;1999.90;999.90;;;17.70;99.90;;;;;;5071450;28;20189;-66
2022/09/07 01:29:03;;;;;;;1999.90;999.90;;;18.10;99.90;;;;;;5071360;28;20171;-66
2022/09/07 01:31:41;;;;;;;1999.90;999.90;;;17.80;99.90;;;;;;5071940;28;20644;-65
2022/09/07 01:34:16;;;;;;;1999.90;999.90;;;17.80;99.90;;;;;;5072008;28;20210;-65
2022/09/07 01:36:50;;;;;;;1999.90;999.90;;;18.10;99.90;;;;;;5072161;28;20198;-66
2022/09/07 01:39:22;;;;;;;1999.90;999.90;;;17.90;99.90;;;;;;5072130;28;20195;-66
2022/09/07 01:41:53;;;;;;;1999.90;999.90;;;17.90;99.90;;;;;;5072161;28;20235;-65
2022/09/07 01:44:24;;;;;;;1999.90;999.90;;;17.90;99.90;;;;;;5072093;28;20178;-65
2022/09/07 01:46:58;;;;;;;1999.90;999.90;;;17.70;99.90;;;;;;5071800;28;20260;-65
2022/09/07 01:49:29;;;;;;;1999.90;999.90;;;17.70;99.90;;;;;;5071721;28;20518;-65
2022/09/07 01:52:00;;;;;;;1999.90;999.90;;;17.70;99.90;;;;;;5072228;28;20188;-66
2022/09/07 01:54:32;;;;;;;1999.90;999.90;;;17.80;99.90;;;;;;5071209;28;20212;-65
2022/09/07 01:57:05;;;;;;;1999.90;999.90;;;17.80;99.90;;;;;;5071688;28;20191;-65
2022/09/07 01:59:38;;;;;;;1999.90;999.90;;;17.70;99.90;;;;;;5071936;28;20190;-65
2022/09/07 02:02:09;;;;;;;1999.90;999.90;;;18.00;99.90;;;;;;5071534;28;20230;-64
2022/09/07 02:04:40;;;;;;;1999.90;999.90;;;17.70;99.90;;;;;;5071473;28;20196;-64
2022/09/07 02:07:13;;;;;;;1999.90;999.90;;;17.70;99.90;;;;;;5071595;28;20187;-65
2022/09/07 02:09:43;;;;;;;1999.90;999.90;;;17.70;99.90;;;;;;5075449;28;20189;-65
2022/09/07 02:12:21;;;;;;;1999.90;999.90;;;18.00;99.90;;;;;;5075119;28;20211;-65
2022/09/07 02:14:54;;;;;;;1999.90;999.90;;;17.90;99.90;;;;;;5075281;28;20203;-65
2022/09/07 02:17:27;;;;;;;1999.90;999.90;;;17.70;99.90;;;;;;5075373;28;20187;-65
2022/09/07 02:19:58;;;;;;;1999.90;999.90;;;17.60;99.90;;;;;;5075301;28;20193;-65
2022/09/07 02:22:29;;;;;;;1999.90;999.90;;;17.80;99.90;;;;;;5075127;28;20242;-65
2022/09/07 02:25:00;;;;;;;1999.90;999.90;;;17.80;99.90;;;;;;5075147;28;20182;-65
2022/09/07 02:27:32;;;;;;;1999.90;999.90;;;18.00;99.90;;;;;;5074880;28;20363;-65
2022/09/07 02:30:02;;;;;;;1999.90;999.90;;;17.80;99.90;;;;;;5074784;28;20186;-65
2022/09/07 02:32:29;;;;;;;1999.90;999.90;;;17.70;99.90;;;;;;5074925;28;20299;-64
2022/09/07 02:34:56;;;;;;;1999.90;999.90;;;17.80;99.90;;;;;;5074622;28;20225;-64
2022/09/07 02:37:25;;;;;;;1999.90;999.90;;;17.70;99.90;;;;;;5074671;28;20205;-64
2022/09/07 02:39:52;;;;;;;1999.90;999.90;;;17.40;99.90;;;;;;5074968;28;20557;-65
2022/09/07 02:42:19;;;;;;;1999.90;999.90;;;17.40;99.90;;;;;;5074584;28;20195;-65
2022/09/07 02:44:47;;;;;;;1999.90;999.90;;;17.30;99.90;;;;;;5074833;28;20188;-64
2022/09/07 02:47:26;;;;;;;1999.90;999.90;;;17.30;99.90;;;;;;5074847;28;20220;-64
2022/09/07 02:50:35;;;;;;;1999.90;999.90;;;17.30;99.90;;;;;;5074824;28;20173;-64
2022/09/07 02:53:16;;;;;;;1999.90;999.90;;;17.50;99.90;;;;;;5058612;28;20205;-64
2022/09/07 02:55:52;;;;;;;1999.90;999.90;;;17.20;99.90;;;;;;5074244;28;20201;-65
2022/09/07 02:58:29;;;;;;;1999.90;999.90;;;17.50;99.90;;;;;;5074511;28;20193;-65
2022/09/07 03:01:06;;;;;;;1999.90;999.90;;;16.90;99.90;;;;;;5074148;28;20243;-64
2022/09/07 03:03:42;;;;;;;1999.90;999.90;;;17.00;99.90;;;;;;5074083;28;20206;-63
2022/09/07 03:06:16;;;;;;;1999.90;999.90;;;17.10;99.90;;;;;;5074443;28;20179;-64
2022/09/07 03:08:48;;;;;;;1999.90;999.90;;;17.40;99.90;;;;;;5074478;28;20189;-64
2022/09/07 03:11:16;;;;;;;1999.90;999.90;;;17.00;99.90;;;;;;5074104;28;20634;-64
2022/09/07 03:13:43;;;;;;;1999.90;999.90;;;17.10;99.90;;;;;;5073973;28;20239;-64
2022/09/07 03:16:13;;;;;;;1999.90;999.90;;;17.20;99.90;;;;;;5073813;28;20221;-64
2022/09/07 03:18:42;;;;;;;1999.90;999.90;;;17.30;99.90;;;;;;5073830;28;20683;-64
2022/09/07 03:21:09;;;;;;;1999.90;999.90;;;17.00;99.90;;;;;;5073835;28;20195;-64
2022/09/07 03:23:37;;;;;;;1999.90;999.90;;;17.10;99.90;;;;;;5073775;28;20203;-64
2022/09/07 03:26:05;;;;;;;1999.90;999.90;;;17.40;99.90;;;;;;5073633;28;20557;-64
2022/09/07 03:28:32;;;;;;;1999.90;999.90;;;17.00;99.90;;;;;;5073681;28;20687;-64
2022/09/07 03:31:01;;;;;;;1999.90;999.90;;;17.20;99.90;;;;;;5073925;28;20208;-64
2022/09/07 03:33:28;;;;;;;1999.90;999.90;;;17.30;99.90;;;;;;5073861;28;20200;-64
2022/09/07 03:36:01;;;;;;;1999.90;999.90;;;17.00;99.90;;;;;;5073504;28;20579;-65
2022/09/07 03:38:29;;;;;;;1999.90;999.90;;;16.80;99.90;;;;;;5073485;28;20657;-65
2022/09/07 03:41:00;;;;;;;1999.90;999.90;;;17.30;99.90;;;;;;5073484;28;20670;-65
2022/09/07 03:43:28;;;;;;;1999.90;999.90;;;16.90;99.90;;;;;;5073401;28;20190;-64
2022/09/07 03:45:58;;;;;;;1999.90;999.90;;;16.90;99.90;;;;;;5073854;28;20200;-65
2022/09/07 03:48:25;;;;;;;1999.90;999.90;;;17.10;99.90;;;;;;5073557;28;20200;-64
2022/09/07 03:51:01;;;;;;;1999.90;999.90;;;17.20;99.90;;;;;;5073257;28;20694;-64
2022/09/07 03:53:31;;;;;;;1999.90;999.90;;;16.90;99.90;;;;;;5073484;28;20182;-64
2022/09/07 03:55:59;;;;;;;1999.90;999.90;;;17.20;99.90;;;;;;5072991;28;20620;-65
2022/09/07 03:58:28;;;;;;;1999.90;999.90;;;16.60;99.90;;;;;;5073007;28;20675;-64
2022/09/07 04:00:56;;;;;;;1999.90;999.90;;;17.00;99.90;;;;;;5072923;28;20231;-64
2022/09/07 04:03:23;;;;;;;1999.90;999.90;;;17.00;99.90;;;;;;5073169;28;20197;-64
2022/09/07 04:05:50;;;;;;;1999.90;999.90;;;17.00;99.90;;;;;;5073233;28;20196;-64
2022/09/07 04:08:19;;;;;;;1999.90;999.90;;;17.00;99.90;;;;;;5073073;28;20190;-64
2022/09/07 04:10:46;;;;;;;1999.90;999.90;;;16.80;99.90;;;;;;5072883;28;20197;-65
2022/09/07 04:13:13;;;;;;;1999.90;999.90;;;17.10;99.90;;;;;;5073145;28;20203;-64
2022/09/07 04:15:40;;;;;;;1999.90;999.90;;;17.10;99.90;;;;;;5073245;28;20208;-65
2022/09/07 04:18:07;;;;;;;1999.90;999.90;;;16.70;99.90;;;;;;5072773;28;20210;-64
2022/09/07 04:20:34;;;;;;;1999.90;999.90;;;16.70;99.90;;;;;;5072661;28;20537;-65
2022/09/07 04:23:01;;;;;;;1999.90;999.90;;;16.50;99.90;;;;;;5072663;28;20665;-64
2022/09/07 04:25:29;;;;;;;1999.90;999.90;;;16.80;99.90;;;;;;5072784;28;20193;-65
2022/09/07 04:27:57;;;;;;;1999.90;999.90;;;16.80;99.90;;;;;;5072588;28;20201;-64
2022/09/07 04:30:24;;;;;;;1999.90;999.90;;;16.60;99.90;;;;;;5072412;28;20207;-65
2022/09/07 04:32:51;;;;;;;1999.90;999.90;;;16.90;99.90;;;;;;5072398;28;20610;-64
2022/09/07 04:35:18;;;;;;;1999.90;999.90;;;16.80;99.90;;;;;;5072371;28;20710;-64
2022/09/07 04:37:45;;;;;;;1999.90;999.90;;;17.00;99.90;;;;;;5072856;28;20192;-65
2022/09/07 04:40:13;;;;;;;1999.90;999.90;;;16.80;99.90;;;;;;5072517;28;20563;-65
2022/09/07 04:42:41;;;;;;;1999.90;999.90;;;16.90;99.90;;;;;;5072701;28;20200;-65
2022/09/07 04:45:08;;;;;;;1999.90;999.90;;;16.70;99.90;;;;;;5072401;28;20239;-65
2022/09/07 04:47:35;;;;;;;1999.90;999.90;;;16.90;99.90;;;;;;5072630;28;20212;-65
2022/09/07 04:50:03;;;;;;;1999.90;999.90;;;16.80;99.90;;;;;;5072795;28;20207;-65
2022/09/07 04:52:30;;;;;;;1999.90;999.90;;;16.70;99.90;;;;;;5072674;28;20241;-65
2022/09/07 04:54:57;;;;;;;1999.90;999.90;;;16.70;99.90;;;;;;5072140;28;20248;-65
2022/09/07 04:57:25;;;;;;;1999.90;999.90;;;17.00;99.90;;;;;;5072160;28;20726;-65
2022/09/07 04:59:54;;;;;;;1999.90;999.90;;;16.80;99.90;;;;;;5072226;28;20196;-65
2022/09/07 05:02:21;;;;;;;1999.90;999.90;;;17.00;99.90;;;;;;5071966;28;20227;-64
2022/09/07 05:04:48;;;;;;;1999.90;999.90;;;16.90;99.90;;;;;;5072486;28;20206;-64
2022/09/07 05:07:15;;;;;;;1999.90;999.90;;;17.00;99.90;;;;;;5072474;28;20242;-65
2022/09/07 05:09:42;;;;;;;1999.90;999.90;;;17.00;99.90;;;;;;5072172;28;20202;-64
2022/09/07 05:12:09;;;;;;;1999.90;999.90;;;17.00;99.90;;;;;;5072433;28;20206;-65
2022/09/07 05:14:36;;;;;;;1999.90;999.90;;;17.10;99.90;;;;;;5072001;28;20207;-64
2022/09/07 05:17:06;;;;;;;1999.90;999.90;;;17.10;99.90;;;;;;5072190;28;20205;-65
2022/09/07 05:19:33;;;;;;;1999.90;999.90;;;17.00;99.90;;;;;;5072095;28;20673;-65
2022/09/07 05:22:00;;;;;;;1999.90;999.90;;;17.00;99.90;;;;;;5072211;28;20193;-65
2022/09/07 05:24:27;;;;;;;1999.90;999.90;;;16.90;99.90;;;;;;5072174;28;20255;-66
2022/09/07 05:26:54;;;;;;;1999.90;999.90;;;16.90;99.90;;;;;;5072010;28;20201;-64
2022/09/07 05:29:22;;;;;;;1999.90;999.90;;;16.90;99.90;;;;;;5072390;28;20203;-64
2022/09/07 05:31:49;;;;;;;1999.90;999.90;;;16.90;99.90;;;;;;5072048;28;20199;-64
2022/09/07 05:34:17;;;;;;;1999.90;999.90;;;17.00;99.90;;;;;;5072158;28;20201;-63
2022/09/07 05:36:44;;;;;;;1999.90;999.90;;;17.20;99.90;;;;;;5072489;28;20216;-65
2022/09/07 05:39:11;;;;;;;1999.90;999.90;;;17.40;99.90;;;;;;5071865;28;20274;-64
2022/09/07 05:41:38;;;;;;;1999.90;999.90;;;17.40;99.90;;;;;;5072170;28;20230;-65
2022/09/07 05:44:06;;;;;;;1999.90;999.90;;;17.50;99.90;;;;;;5075105;28;20227;-63
2022/09/07 05:46:33;;;;;;;1999.90;999.90;;;17.50;99.90;;;;;;5076097;28;20194;-64
2022/09/07 05:49:02;;;;;;;1999.90;999.90;;;17.60;99.90;;;;;;5075569;28;20266;-64
2022/09/07 05:51:30;;;;;;;1999.90;999.90;;;17.60;99.90;;;;;;5075825;28;20212;-64
2022/09/07 05:53:58;;;;;;;1999.90;999.90;;;17.60;99.90;;;;;;5075426;28;20219;-65
2022/09/07 05:56:25;;;;;;;1999.90;999.90;;;17.70;99.90;;;;;;5075649;28;20270;-65
2022/09/07 05:58:52;;;;;;;1999.90;999.90;;;17.70;99.90;;;;;;5075737;28;20267;-64
2022/09/07 06:01:20;;;;;;;1999.90;999.90;;;17.80;99.90;;;;;;5075370;28;20236;-64
2022/09/07 06:03:47;;;;;;;1999.90;999.90;;;17.80;99.90;;;;;;5075176;28;20211;-63
2022/09/07 06:06:16;;;;;;;1999.90;999.90;;;17.80;99.90;;;;;;5075618;28;20186;-64
2022/09/07 06:08:47;;;;;;;1999.90;999.90;;;17.80;99.90;;;;;;5075592;28;20202;-64
2022/09/07 06:11:17;;;;;;;1999.90;999.90;;;17.90;99.90;;;;;;5075239;28;20190;-64
2022/09/07 06:13:44;;;;;;;1999.90;999.90;;;17.80;99.90;;;;;;5075542;28;20198;-64
2022/09/07 06:16:12;;;;;;;1999.90;999.90;;;17.90;99.90;;;;;;5075356;28;20210;-64
2022/09/07 06:18:41;;;;;;;1999.90;999.90;;;17.80;99.90;;;;;;5075380;28;20203;-64
2022/09/07 06:21:10;;;;;;;1999.90;999.90;;;17.80;99.90;;;;;;5075216;28;20209;-64
2022/09/07 06:23:39;;;;;;;1999.90;999.90;;;17.90;99.90;;;;;;5075229;28;20206;-64
2022/09/07 06:26:08;;;;;;;1999.90;999.90;;;17.90;99.90;;;;;;5074832;28;20265;-64
2022/09/07 06:28:37;;;;;;;1999.90;999.90;;;17.90;99.90;;;;;;5075201;28;20200;-65
2022/09/07 06:31:06;;;;;;;1999.90;999.90;;;17.90;99.90;;;;;;5075111;28;20198;-63
2022/09/07 06:33:33;;;;;;;1999.90;999.90;;;18.00;99.90;;;;;;5074696;28;20736;-64
2022/09/07 06:36:02;;;;;;;1999.90;999.90;;;18.00;99.90;;;;;;5075099;28;20229;-64
2022/09/07 06:38:30;;;;;;;1999.90;999.90;;;18.00;99.90;;;;;;5074973;28;20205;-63
2022/09/07 06:41:00;;;;;;;1999.90;999.90;;;18.10;99.90;;;;;;5074918;28;20261;-64
2022/09/07 06:43:29;;;;;;;1999.90;999.90;;;18.10;99.90;;;;;;5074930;28;20182;-64
2022/09/07 06:45:56;;;;;;;1999.90;999.90;;;18.00;99.90;;;;;;5074605;28;20594;-64
2022/09/07 06:48:23;;;;;;;1999.90;999.90;;;18.10;99.90;;;;;;5074529;28;20264;-67
2022/09/07 06:50:58;;;;;;;1999.90;999.90;;;17.90;99.90;;;;;;5074745;28;20194;-64
2022/09/07 06:53:25;;;;;;;1999.90;999.90;;;18.00;99.90;;;;;;5074413;28;20539;-64
2022/09/07 06:55:53;;;;;;;1999.90;999.90;;;18.00;99.90;;;;;;5074487;28;20232;-64
2022/09/07 06:58:20;;;;;;;1999.90;999.90;;;17.90;99.90;;;;;;5074308;28;20206;-64
2022/09/07 07:00:48;;;;;;;1999.90;999.90;;;17.80;99.90;;;;;;5074418;28;20251;-63
2022/09/07 07:03:15;;;;;;;1999.90;999.90;;;17.90;99.90;;;;;;5074533;28;20225;-64
2022/09/07 07:05:50;;;;;;;1999.90;999.90;;;18.00;99.90;;;;;;5074582;28;20218;-64
2022/09/07 07:08:17;;;;;;;1999.90;999.90;;;18.00;99.90;;;;;;5074375;28;20189;-65
2022/09/07 07:10:44;;;;;;;1999.90;999.90;;;18.10;99.90;;;;;;5074378;28;20198;-64
2022/09/07 07:13:11;;;;;;;1999.90;999.90;;;18.10;99.90;;;;;;5074329;28;20216;-65
2022/09/07 07:15:38;;;;;;;1999.90;999.90;;;18.00;99.90;;;;;;5073872;28;20279;-65
2022/09/07 07:18:06;;;;;;;1999.90;999.90;;;18.00;99.90;;;;;;5074272;28;20202;-65
2022/09/07 07:20:35;;;;;;;1999.90;999.90;;;17.90;99.90;;;;;;5074217;28;20254;-65
2022/09/07 07:23:02;;;;;;;1999.90;999.90;;;17.90;99.90;;;;;;5073902;28;20209;-65
2022/09/07 07:25:29;;;;;;;1999.90;999.90;;;17.90;99.90;;;;;;5073679;28;20671;-65
2022/09/07 07:27:56;;;;;;;1999.90;999.90;;;18.00;99.90;;;;;;5074087;28;20198;-64
2022/09/07 07:30:23;;;;;;;1999.90;999.90;;;17.90;99.90;;;;;;5073665;28;20202;-65
2022/09/07 07:33:28;;;;;;;1999.90;999.90;;;18.00;99.90;;;;;;5073933;28;20204;-64
2022/09/07 07:36:08;;;;;;;1999.90;999.90;;;18.10;99.90;;;;;;5073573;28;20202;-64
2022/09/07 07:38:37;;;;;;;1999.90;999.90;;;18.20;99.90;;;;;;5073768;28;20659;-67
2022/09/07 07:41:05;;;;;;;1999.90;999.90;;;18.30;99.90;;;;;;5073544;28;20684;-64
2022/09/07 07:43:32;;;;;;;1999.90;999.90;;;18.30;99.90;;;;;;5073689;28;20241;-64
2022/09/07 07:45:59;;;;;;;1999.90;999.90;;;18.30;99.90;;;;;;5073391;28;20204;-65
2022/09/07 07:48:27;;;;;;;1999.90;999.90;;;18.30;99.90;;;;;;5073341;28;20551;-65
2022/09/07 07:50:59;;;;;;;1999.90;999.90;;;18.40;99.90;;;;;;5073227;28;20194;-66
2022/09/07 07:53:26;;;;;;;1999.90;999.90;;;18.50;99.90;;;;;;5073499;28;20194;-67
2022/09/07 07:55:53;;;;;;;1999.90;999.90;;;18.60;99.90;;;;;;5073024;28;20682;-67
2022/09/07 07:58:20;;;;;;;1999.90;999.90;;;18.60;99.90;;;;;;5073156;28;20724;-67
2022/09/07 08:00:48;;;;;;;1999.90;999.90;;;18.60;99.90;;;;;;5073147;28;20245;-66
2022/09/07 08:03:15;;;;;;;1999.90;999.90;;;18.90;99.90;;;;;;5072961;28;20665;-65
2022/09/07 08:05:42;;;;;;;1999.90;999.90;;;19.50;99.90;;;;;;5072552;28;20191;-66
2022/09/07 08:08:11;;;;;;;1999.90;999.90;;;19.90;99.90;;;;;;5073307;28;20256;-66
2022/09/07 08:10:38;;;;;;;1999.90;999.90;;;19.70;99.90;;;;;;5073119;28;20204;-66
2022/09/07 08:13:05;;;;;;;1999.90;999.90;;;19.50;99.90;;;;;;5073135;28;20200;-66
2022/09/07 08:15:38;;;;;;;1999.90;999.90;;;19.30;99.90;;;;;;5072708;28;20668;-66
2022/09/07 08:18:06;;;;;;;1999.90;999.90;;;19.40;99.90;;;;;;5072748;28;20202;-66
2022/09/07 08:20:33;;;;;;;1999.90;999.90;;;19.30;99.90;;;;;;5072647;28;20640;-65
2022/09/07 08:23:01;;;;;;;1999.90;999.90;;;19.30;99.90;;;;;;5072651;28;20195;-65
2022/09/07 08:25:29;;;;;;;1999.90;999.90;;;19.30;99.90;;;;;;5072810;28;20260;-66
2022/09/07 08:27:56;;;;;;;1999.90;999.90;;;19.40;99.90;;;;;;5072912;28;20236;-66
2022/09/07 08:30:24;;;;;;;1999.90;999.90;;;20.30;99.90;;;;;;5072549;28;20567;-66
2022/09/07 08:32:51;;;;;;;1999.90;999.90;;;21.20;99.90;;;;;;5072737;28;20203;-66
2022/09/07 08:35:19;;;;;;;1999.90;999.90;;;21.60;99.90;;;;;;5072744;28;20213;-66
2022/09/07 08:37:46;;;;;;;1999.90;999.90;;;22.40;99.90;;;;;;5072667;28;20279;-67
2022/09/07 08:40:16;;;;;;;1999.90;999.90;;;22.40;99.90;;;;;;5072450;28;20206;-67
2022/09/07 08:42:59;;;;;;;1999.90;999.90;;;21.90;99.90;;;;;;5072459;28;20657;-66
2022/09/07 08:45:32;;;;;;;1999.90;999.90;;;21.80;99.90;;;;;;5072630;28;20180;-66
2022/09/07 08:47:59;;;;;;;1999.90;999.90;;;22.20;99.90;;;;;;5072805;28;20180;-66
2022/09/07 08:50:32;;;;;;;1999.90;999.90;;;22.10;99.90;;;;;;5072259;28;20668;-66
2022/09/07 08:53:04;;;;;;;1999.90;999.90;;;21.60;99.90;;;;;;5072382;28;20236;-64
2022/09/07 08:55:34;;;;;;;1999.90;999.90;;;21.40;99.90;;;;;;5071955;28;20201;-65
2022/09/07 08:58:09;;;;;;;1999.90;999.90;;;21.50;99.90;;;;;;5072077;28;20213;-65
2022/09/07 09:00:38;;;;;;;1999.90;999.90;;;21.70;99.90;;;;;;5071978;28;20226;-65
2022/09/07 09:03:07;;;;;;;1999.90;999.90;;;22.30;99.90;;;;;;5072270;28;20198;-65
2022/09/07 09:05:44;;;;;;;1999.90;999.90;;;23.20;99.90;;;;;;5072131;28;20380;-66
2022/09/07 09:08:25;;;;;;;1999.90;999.90;;;23.10;99.90;;;;;;5072492;28;20187;-66
2022/09/07 09:11:01;;;;;;;1999.90;999.90;;;23.00;99.90;;;;;;5072508;28;20179;-65
2022/09/07 09:13:44;;;;;;;1999.90;999.90;;;22.80;99.90;;;;;;5072154;28;20191;-65
2022/09/07 09:16:18;;;;;;;1999.90;999.90;;;22.60;99.90;;;;;;5072451;28;20179;-65
2022/09/07 09:18:58;;;;;;;1999.90;999.90;;;22.20;99.90;;;;;;5076466;28;20199;-65
2022/09/07 09:21:25;;;;;;;1999.90;999.90;;;21.70;99.90;;;;;;5076431;28;20187;-64
2022/09/07 09:23:59;;;;;;;1999.90;999.90;;;21.70;99.90;;;;;;5076320;28;20323;-64
2022/09/07 09:26:27;;;;;;;1999.90;999.90;;;21.50;99.90;;;;;;5076364;28;20228;-65
2022/09/07 09:28:56;;;;;;;1999.90;999.90;;;22.20;99.90;;;;;;5076017;28;20209;-64
2022/09/07 09:31:26;;;;;;;1999.90;999.90;;;22.40;99.90;;;;;;5076234;28;20231;-64
2022/09/07 09:34:09;;;;;;;1999.90;999.90;;;23.30;99.90;;;;;;5075767;28;20209;-64
2022/09/07 09:36:41;;;;;;;1999.90;999.90;;;23.40;99.90;;;;;;5076083;28;20185;-65
2022/09/07 09:39:29;;;;;;;1999.90;999.90;;;23.90;99.90;;;;;;5076187;28;20199;-65
2022/09/07 09:41:59;;;;;;;1999.90;999.90;;;24.50;99.90;;;;;;5075758;28;20221;-64
2022/09/07 09:44:33;;;;;;;1999.90;999.90;;;24.80;99.90;;;;;;5075996;28;20191;-64
2022/09/07 09:47:02;;;;;;;1999.90;999.90;;;24.70;99.90;;;;;;5076005;28;20179;-64
2022/09/07 09:49:34;;;;;;;1999.90;999.90;;;24.60;99.90;;;;;;5075857;28;20199;-64
2022/09/07 09:52:03;;;;;;;1999.90;999.90;;;24.30;99.90;;;;;;5075580;28;20249;-64
2022/09/07 09:54:33;;;;;;;1999.90;999.90;;;23.60;99.90;;;;;;5075731;28;20195;-64
2022/09/07 09:57:00;;;;;;;1999.90;999.90;;;23.40;99.90;;;;;;5075349;28;20207;-64
2022/09/07 09:59:31;;;;;;;1999.90;999.90;;;24.30;99.90;;;;;;5075669;28;20191;-64
2022/09/07 10:01:58;;;;;;;1999.90;999.90;;;24.90;99.90;;;;;;5075102;28;20226;-63
2022/09/07 10:04:32;;;;;;;1999.90;999.90;;;25.70;99.90;;;;;;5075606;28;20199;-63
2022/09/07 10:07:16;;;;;;;1999.90;999.90;;;25.60;99.90;;;;;;5075293;28;20224;-64
2022/09/07 10:09:49;;;;;;;1999.90;999.90;;;25.30;99.90;;;;;;5075201;28;20185;-64
2022/09/07 10:12:26;;;;;;;1999.90;999.90;;;24.30;99.90;;;;;;5075488;28;20187;-64
2022/09/07 10:14:56;;;;;;;1999.90;999.90;;;23.90;99.90;;;;;;5075434;28;20216;-64
2022/09/07 10:17:29;;;;;;;1999.90;999.90;;;24.00;99.90;;;;;;5075209;28;20578;-64
2022/09/07 10:20:01;;;;;;;1999.90;999.90;;;24.50;99.90;;;;;;5074987;28;20179;-64
2022/09/07 10:22:34;;;;;;;1999.90;999.90;;;24.90;99.90;;;;;;5075247;28;20193;-64
2022/09/07 10:25:03;;;;;;;1999.90;999.90;;;25.50;99.90;;;;;;5074782;28;20202;-64
2022/09/07 10:27:35;;;;;;;1999.90;999.90;;;26.10;99.90;;;;;;5075084;28;20198;-64
2022/09/07 10:30:13;;;;;;;1999.90;999.90;;;26.50;99.90;;;;;;5074162;28;20197;-64
2022/09/07 10:32:53;;;;;;;1999.90;999.90;;;26.50;99.90;;;;;;5074722;28;20182;-64
2022/09/07 10:35:26;;;;;;;1999.90;999.90;;;26.70;99.90;;;;;;5074748;28;20187;-64
2022/09/07 10:38:02;;;;;;;1999.90;999.90;;;26.80;99.90;;;;;;5074433;28;20668;-64
2022/09/07 10:40:33;;;;;;;1999.90;999.90;;;27.10;99.90;;;;;;5074990;28;20189;-64
2022/09/07 10:43:14;;;;;;;1999.90;999.90;;;25.50;99.90;;;;;;5074996;28;20240;-64
2022/09/07 10:45:52;;;;;;;1999.90;999.90;;;25.00;99.90;;;;;;5074645;28;20186;-64
2022/09/07 10:48:28;;;;;;;1999.90;999.90;;;24.20;99.90;;;;;;5074571;28;20525;-64
2022/09/07 10:50:58;;;;;;;1999.90;999.90;;;24.10;99.90;;;;;;5074446;28;20299;-63
2022/09/07 10:53:39;;;;;;;1999.90;999.90;;;23.90;99.90;;;;;;5074686;28;20199;-64
2022/09/07 10:56:10;;;;;;;1999.90;999.90;;;23.80;99.90;;;;;;5074656;28;20535;-64
2022/09/07 10:58:49;;;;;;;1999.90;999.90;;;23.90;99.90;;;;;;5074305;28;20218;-63
2022/09/07 11:01:26;;;;;;;1999.90;999.90;;;23.90;99.90;;;;;;5074376;28;20234;-63
2022/09/07 11:04:02;;;;;;;1999.90;999.90;;;24.10;99.90;;;;;;5074033;28;20183;-63
2022/09/07 11:06:35;;;;;;;1999.90;999.90;;;24.50;99.90;;;;;;5074227;28;20650;-64
2022/09/07 11:09:28;;;;;;;1999.90;999.90;;;25.50;99.90;;;;;;5074197;28;20179;-64
2022/09/07 11:12:02;;;;;;;1999.90;999.90;;;26.50;99.90;;;;;;5074430;28;20183;-64
2022/09/07 11:14:32;;;;;;;1999.90;999.90;;;27.00;99.90;;;;;;5074056;28;20570;-64
2022/09/07 11:17:04;;;;;;;1999.90;999.90;;;27.20;99.90;;;;;;5074336;28;20199;-64
2022/09/07 11:19:36;;;;;;;1999.90;999.90;;;27.30;44.20;;;;;;5074191;28;20185;-64
2022/09/07 11:22:14;;;;;;;1999.90;999.90;;;27.00;12.50;;;;;;5074213;28;20176;-64
2022/09/07 11:24:47;;;;;;;1999.90;999.90;;;26.80;4.80;;;;;;5073770;28;20182;-64
2022/09/07 11:27:21;;;;;;;1999.90;999.90;;;26.60;1.00;;;;;;5074112;28;20186;-64
2022/09/07 11:29:54;;;;;;;1999.90;999.90;;;26.80;1.00;;;;;;5073710;28;20184;-64
2022/09/07 11:32:26;;;;;;;1999.90;999.90;;;26.70;1.00;;;;;;5073891;28;20183;-64
2022/09/07 11:34:57;;;;;;;1999.90;999.90;;;26.70;1.00;;;;;;5073993;28;20189;-64
2022/09/07 11:37:29;;;;;;;1999.90;999.90;;;26.80;1.00;;;;;;5073494;28;20183;-65
2022/09/07 11:40:03;;;;;;;1999.90;999.90;;;26.80;1.00;;;;;;5072911;28;20187;-65
2022/09/07 11:42:33;;;;;;;1999.90;999.90;;;26.40;1.00;;;;;;5073485;28;20194;-64
2022/09/07 11:45:05;;;;;;;1999.90;999.90;;;26.30;1.00;;;;;;5073730;28;20183;-65
2022/09/07 11:47:40;;;;;;;1999.90;999.90;;;26.60;1.00;;;;;;5073666;28;20182;-65
2022/09/07 11:50:16;;;;;;;1999.90;999.90;;;26.70;1.00;;;;;;5073236;28;20187;-65
2022/09/07 11:52:49;;;;;;;1999.90;999.90;;;26.50;1.00;;;;;;5073583;28;20182;-65
2022/09/07 11:55:24;;;;;;;1999.90;999.90;;;26.70;1.00;;;;;;5073503;28;20187;-65
2022/09/07 11:58:12;;;;;;;1999.90;999.90;;;26.50;1.00;;;;;;5073138;28;20701;-64
2022/09/07 12:00:49;;;;;;;1999.90;999.90;;;26.00;1.00;;;;;;5073225;28;20233;-64
2022/09/07 12:03:33;;;;;;;1999.90;999.90;;;26.70;1.00;;;;;;5073241;28;20193;-64
2022/09/07 12:06:20;;;;;;;1999.90;999.90;;;26.90;1.00;;;;;;5073024;28;20275;-64
2022/09/07 12:09:01;;;;;;;1999.90;999.90;;;26.80;1.00;;;;;;5073283;28;20185;-65
2022/09/07 12:11:59;;;;;;;1999.90;999.90;;;27.20;1.00;;;;;;5073196;28;20307;-64
2022/09/07 12:14:37;;;;;;;1999.90;999.90;;;26.80;1.00;;;;;;5067843;28;20231;-65
2022/09/07 12:17:30;;;;;;;1999.90;999.90;;;26.90;1.00;;;;;;5073061;28;20199;-65